This is the latest recevied weather packets stored in our database for station/object DB0LS-15. If no packets are shown the sender has not sent any weather packets the latest 10 day(s).
| Time | Temp. | Humidity | Pressure | Rain* | Wind** | Luminosity | Snow |
|---|---|---|---|---|---|---|---|
| 1777675838 | 17.78° C | 42% | 1007.7 hPa | 0 mm | - | - | - |
| 1777675235 | 18.33° C | 42% | 1007.8 hPa | 0 mm | - | - | - |
| 1777674631 | 17.78° C | 44% | 1007.7 hPa | 0 mm | - | - | - |
| 1777674027 | 17.22° C | 46% | 1007.7 hPa | 0 mm | - | - | - |
| 1777673423 | 17.22° C | 45% | 1007.9 hPa | 0 mm | - | - | - |
| 1777672819 | 16.67° C | 48% | 1007.8 hPa | 0 mm | - | - | - |
| 1777672276 | 16.67° C | 47% | 1007.9 hPa | 0 mm | - | - | - |
| 1777671672 | 16.67° C | 49% | 1007.8 hPa | 0 mm | - | - | - |
| 1777671068 | 16.67° C | 49% | 1007.8 hPa | 0 mm | - | - | - |
| 1777670464 | 16.67° C | 51% | 1007.9 hPa | 0 mm | - | - | - |
| 1777669860 | 16.67° C | 50% | 1008 hPa | 0 mm | - | - | - |
| 1777669256 | 16.67° C | 49% | 1007.9 hPa | 0 mm | - | - | - |
| 1777668652 | 17.22° C | 49% | 1007.9 hPa | 0 mm | - | - | - |
| 1777668049 | 17.22° C | 48% | 1007.9 hPa | 0 mm | - | - | - |
| 1777667445 | 17.78° C | 46% | 1008 hPa | 0 mm | - | - | - |
| 1777666841 | 17.22° C | 44% | 1008.1 hPa | 0 mm | - | - | - |
| 1777666238 | 17.22° C | 44% | 1008 hPa | 0 mm | - | - | - |
| 1777665634 | 18.89° C | 39% | 1008 hPa | 0 mm | - | - | - |
| 1777665030 | 18.89° C | 39% | 1008.2 hPa | 0 mm | - | - | - |
| 1777664426 | 18.89° C | 39% | 1008.1 hPa | 0 mm | - | - | - |
| 1777663822 | 18.89° C | 40% | 1008.1 hPa | 0 mm | - | - | - |
| 1777663219 | 18.89° C | 40% | 1008.1 hPa | 0 mm | - | - | - |
| 1777662675 | 19.44° C | 38% | 1008.1 hPa | 0 mm | - | - | - |
| 1777662071 | 19.44° C | 38% | 1008 hPa | 0 mm | - | - | - |
| 1777661467 | 19.44° C | 38% | 1008 hPa | 0 mm | - | - | - |
* Rain latest hour (hover to see other rain measurements)
** Current wind speed in m/s (hover to see current wind gust speed)